sensor_id;sensor_type;location;lat;lon;timestamp;P1;durP1;ratioP1;P2;durP2;ratioP2
4794;SDS011;2411;47.060;15.064;2022-08-01T00:00:13;2.70;;;1.90;;
4794;SDS011;2411;47.060;15.064;2022-08-01T00:02:40;4.00;;;1.77;;
4794;SDS011;2411;47.060;15.064;2022-08-01T00:05:07;3.77;;;1.80;;
4794;SDS011;2411;47.060;15.064;2022-08-01T00:07:35;1.87;;;1.77;;
4794;SDS011;2411;47.060;15.064;2022-08-01T00:10:03;3.03;;;2.13;;
4794;SDS011;2411;47.060;15.064;2022-08-01T00:12:31;2.57;;;2.10;;
4794;SDS011;2411;47.060;15.064;2022-08-01T00:14:58;2.03;;;1.80;;
4794;SDS011;2411;47.060;15.064;2022-08-01T00:17:25;4.33;;;2.43;;
4794;SDS011;2411;47.060;15.064;2022-08-01T00:19:53;1.93;;;1.83;;
4794;SDS011;2411;47.060;15.064;2022-08-01T00:22:19;2.00;;;1.90;;
4794;SDS011;2411;47.060;15.064;2022-08-01T00:24:46;2.50;;;1.80;;
4794;SDS011;2411;47.060;15.064;2022-08-01T00:27:13;2.20;;;1.93;;
4794;SDS011;2411;47.060;15.064;2022-08-01T00:29:41;2.50;;;1.70;;
4794;SDS011;2411;47.060;15.064;2022-08-01T00:32:29;1.70;;;1.60;;
4794;SDS011;2411;47.060;15.064;2022-08-01T00:34:57;1.97;;;1.87;;
4794;SDS011;2411;47.060;15.064;2022-08-01T00:37:24;2.17;;;1.97;;
4794;SDS011;2411;47.060;15.064;2022-08-01T00:39:51;1.97;;;1.87;;
4794;SDS011;2411;47.060;15.064;2022-08-01T00:42:18;1.97;;;1.87;;
4794;SDS011;2411;47.060;15.064;2022-08-01T00:44:46;3.53;;;1.90;;
4794;SDS011;2411;47.060;15.064;2022-08-01T00:47:13;2.40;;;1.70;;
4794;SDS011;2411;47.060;15.064;2022-08-01T00:49:40;2.00;;;1.90;;
4794;SDS011;2411;47.060;15.064;2022-08-01T00:52:07;1.67;;;1.57;;
4794;SDS011;2411;47.060;15.064;2022-08-01T00:54:35;2.17;;;1.90;;
4794;SDS011;2411;47.060;15.064;2022-08-01T00:57:03;1.60;;;1.50;;
4794;SDS011;2411;47.060;15.064;2022-08-01T00:59:35;2.73;;;2.33;;
4794;SDS011;2411;47.060;15.064;2022-08-01T01:02:05;2.27;;;2.17;;
4794;SDS011;2411;47.060;15.064;2022-08-01T01:04:40;5.53;;;3.03;;
4794;SDS011;2411;47.060;15.064;2022-08-01T01:07:09;2.20;;;2.10;;
4794;SDS011;2411;47.060;15.064;2022-08-01T01:09:42;2.47;;;2.37;;
4794;SDS011;2411;47.060;15.064;2022-08-01T01:12:30;3.80;;;1.90;;
4794;SDS011;2411;47.060;15.064;2022-08-01T01:15:05;2.30;;;2.20;;
4794;SDS011;2411;47.060;15.064;2022-08-01T01:17:41;2.30;;;2.17;;
4794;SDS011;2411;47.060;15.064;2022-08-01T01:20:22;2.47;;;2.27;;
4794;SDS011;2411;47.060;15.064;2022-08-01T01:31:07;2.87;;;1.90;;
4794;SDS011;2411;47.060;15.064;2022-08-01T01:33:39;5.73;;;2.27;;
4794;SDS011;2411;47.060;15.064;2022-08-01T01:36:12;2.90;;;2.70;;
4794;SDS011;2411;47.060;15.064;2022-08-01T01:38:42;2.27;;;2.17;;
4794;SDS011;2411;47.060;15.064;2022-08-01T01:41:11;3.20;;;2.10;;
4794;SDS011;2411;47.060;15.064;2022-08-01T01:43:40;2.17;;;1.97;;
4794;SDS011;2411;47.060;15.064;2022-08-01T01:46:09;2.60;;;2.50;;
4794;SDS011;2411;47.060;15.064;2022-08-01T01:48:38;2.20;;;2.10;;
4794;SDS011;2411;47.060;15.064;2022-08-01T01:51:09;2.93;;;2.00;;
4794;SDS011;2411;47.060;15.064;2022-08-01T01:53:37;2.10;;;2.00;;
4794;SDS011;2411;47.060;15.064;2022-08-01T01:56:06;3.47;;;2.43;;
4794;SDS011;2411;47.060;15.064;2022-08-01T01:58:34;3.87;;;2.30;;
4794;SDS011;2411;47.060;15.064;2022-08-01T02:01:05;2.97;;;2.07;;
4794;SDS011;2411;47.060;15.064;2022-08-01T02:03:40;2.20;;;2.10;;
4794;SDS011;2411;47.060;15.064;2022-08-01T02:06:09;2.63;;;2.43;;
4794;SDS011;2411;47.060;15.064;2022-08-01T02:08:39;2.57;;;2.40;;
4794;SDS011;2411;47.060;15.064;2022-08-01T02:11:08;2.87;;;2.17;;
4794;SDS011;2411;47.060;15.064;2022-08-01T02:13:44;5.47;;;1.97;;
4794;SDS011;2411;47.060;15.064;2022-08-01T02:16:28;3.90;;;2.50;;
4794;SDS011;2411;47.060;15.064;2022-08-01T02:18:58;1.90;;;1.80;;
4794;SDS011;2411;47.060;15.064;2022-08-01T02:21:46;2.23;;;2.13;;
4794;SDS011;2411;47.060;15.064;2022-08-01T02:24:43;2.20;;;2.10;;
4794;SDS011;2411;47.060;15.064;2022-08-01T02:27:37;5.37;;;2.20;;
4794;SDS011;2411;47.060;15.064;2022-08-01T02:30:10;2.07;;;1.97;;
4794;SDS011;2411;47.060;15.064;2022-08-01T02:32:44;2.57;;;2.37;;
4794;SDS011;2411;47.060;15.064;2022-08-01T02:35:14;8.60;;;2.53;;
4794;SDS011;2411;47.060;15.064;2022-08-01T02:37:49;2.40;;;2.20;;
4794;SDS011;2411;47.060;15.064;2022-08-01T02:40:17;2.00;;;1.90;;
4794;SDS011;2411;47.060;15.064;2022-08-01T02:42:50;2.30;;;2.20;;
4794;SDS011;2411;47.060;15.064;2022-08-01T02:45:19;1.93;;;1.83;;
4794;SDS011;2411;47.060;15.064;2022-08-01T02:47:50;2.20;;;1.70;;
4794;SDS011;2411;47.060;15.064;2022-08-01T02:50:22;2.60;;;2.00;;
4794;SDS011;2411;47.060;15.064;2022-08-01T02:52:52;4.93;;;2.27;;
4794;SDS011;2411;47.060;15.064;2022-08-01T02:55:21;2.30;;;2.20;;
4794;SDS011;2411;47.060;15.064;2022-08-01T02:57:49;2.73;;;2.53;;
4794;SDS011;2411;47.060;15.064;2022-08-01T03:00:26;5.23;;;2.03;;
4794;SDS011;2411;47.060;15.064;2022-08-01T03:02:54;1.93;;;1.80;;
4794;SDS011;2411;47.060;15.064;2022-08-01T03:05:24;3.17;;;1.90;;
4794;SDS011;2411;47.060;15.064;2022-08-01T03:07:52;4.80;;;2.33;;
4794;SDS011;2411;47.060;15.064;2022-08-01T03:10:21;2.70;;;2.50;;
4794;SDS011;2411;47.060;15.064;2022-08-01T03:12:49;2.17;;;2.07;;
4794;SDS011;2411;47.060;15.064;2022-08-01T03:15:17;2.57;;;2.30;;
4794;SDS011;2411;47.060;15.064;2022-08-01T03:17:45;2.23;;;2.13;;
4794;SDS011;2411;47.060;15.064;2022-08-01T03:20:14;2.23;;;2.10;;
4794;SDS011;2411;47.060;15.064;2022-08-01T03:22:43;2.40;;;2.20;;
4794;SDS011;2411;47.060;15.064;2022-08-01T03:25:11;2.10;;;2.00;;
4794;SDS011;2411;47.060;15.064;2022-08-01T03:27:40;2.57;;;2.37;;
4794;SDS011;2411;47.060;15.064;2022-08-01T03:30:09;8.53;;;2.20;;
4794;SDS011;2411;47.060;15.064;2022-08-01T03:32:37;2.10;;;2.00;;
4794;SDS011;2411;47.060;15.064;2022-08-01T03:35:05;3.67;;;2.50;;
4794;SDS011;2411;47.060;15.064;2022-08-01T03:37:42;5.50;;;2.27;;
4794;SDS011;2411;47.060;15.064;2022-08-01T03:40:35;2.73;;;2.20;;
4794;SDS011;2411;47.060;15.064;2022-08-01T03:43:05;3.90;;;2.30;;
4794;SDS011;2411;47.060;15.064;2022-08-01T03:45:39;1.93;;;1.83;;
4794;SDS011;2411;47.060;15.064;2022-08-01T03:48:13;2.73;;;2.27;;
4794;SDS011;2411;47.060;15.064;2022-08-01T03:50:43;11.00;;;1.87;;
4794;SDS011;2411;47.060;15.064;2022-08-01T03:53:13;3.57;;;1.80;;
4794;SDS011;2411;47.060;15.064;2022-08-01T03:55:40;4.80;;;2.33;;
4794;SDS011;2411;47.060;15.064;2022-08-01T03:58:09;1.60;;;1.50;;
4794;SDS011;2411;47.060;15.064;2022-08-01T04:00:37;6.63;;;2.17;;
4794;SDS011;2411;47.060;15.064;2022-08-01T04:03:09;1.90;;;1.80;;
4794;SDS011;2411;47.060;15.064;2022-08-01T04:05:40;2.30;;;2.10;;
4794;SDS011;2411;47.060;15.064;2022-08-01T04:08:08;2.50;;;2.17;;
4794;SDS011;2411;47.060;15.064;2022-08-01T04:10:36;2.93;;;2.30;;
4794;SDS011;2411;47.060;15.064;2022-08-01T04:13:03;6.63;;;2.50;;
4794;SDS011;2411;47.060;15.064;2022-08-01T04:15:30;2.70;;;2.10;;
4794;SDS011;2411;47.060;15.064;2022-08-01T04:17:57;5.73;;;2.23;;
4794;SDS011;2411;47.060;15.064;2022-08-01T04:20:24;4.43;;;2.40;;
4794;SDS011;2411;47.060;15.064;2022-08-01T04:22:51;9.53;;;2.27;;
4794;SDS011;2411;47.060;15.064;2022-08-01T04:25:24;2.80;;;2.37;;
4794;SDS011;2411;47.060;15.064;2022-08-01T04:27:54;3.80;;;2.77;;
4794;SDS011;2411;47.060;15.064;2022-08-01T04:30:24;4.27;;;2.40;;
4794;SDS011;2411;47.060;15.064;2022-08-01T04:32:55;2.43;;;2.33;;
4794;SDS011;2411;47.060;15.064;2022-08-01T04:35:25;2.10;;;2.00;;
4794;SDS011;2411;47.060;15.064;2022-08-01T04:38:15;2.23;;;2.10;;
4794;SDS011;2411;47.060;15.064;2022-08-01T04:40:49;3.47;;;2.87;;
4794;SDS011;2411;47.060;15.064;2022-08-01T04:43:18;4.40;;;2.37;;
4794;SDS011;2411;47.060;15.064;2022-08-01T04:45:46;2.10;;;2.00;;
4794;SDS011;2411;47.060;15.064;2022-08-01T04:48:15;4.40;;;2.03;;
4794;SDS011;2411;47.060;15.064;2022-08-01T04:50:48;2.60;;;2.40;;
4794;SDS011;2411;47.060;15.064;2022-08-01T04:53:15;2.03;;;1.93;;
4794;SDS011;2411;47.060;15.064;2022-08-01T04:55:44;1.97;;;1.87;;
4794;SDS011;2411;47.060;15.064;2022-08-01T04:58:12;2.93;;;2.50;;
4794;SDS011;2411;47.060;15.064;2022-08-01T05:00:44;4.73;;;2.40;;
4794;SDS011;2411;47.060;15.064;2022-08-01T05:03:12;2.20;;;2.10;;
4794;SDS011;2411;47.060;15.064;2022-08-01T05:05:39;2.60;;;2.40;;
4794;SDS011;2411;47.060;15.064;2022-08-01T05:08:06;2.30;;;2.10;;
4794;SDS011;2411;47.060;15.064;2022-08-01T05:10:33;5.87;;;2.10;;
4794;SDS011;2411;47.060;15.064;2022-08-01T05:13:01;2.10;;;2.00;;
4794;SDS011;2411;47.060;15.064;2022-08-01T05:15:28;9.03;;;1.83;;
4794;SDS011;2411;47.060;15.064;2022-08-01T05:17:55;2.30;;;2.10;;
4794;SDS011;2411;47.060;15.064;2022-08-01T05:20:22;2.00;;;1.90;;
4794;SDS011;2411;47.060;15.064;2022-08-01T05:22:49;1.80;;;1.70;;
4794;SDS011;2411;47.060;15.064;2022-08-01T05:25:16;4.13;;;2.00;;
4794;SDS011;2411;47.060;15.064;2022-08-01T05:27:54;2.40;;;1.83;;
4794;SDS011;2411;47.060;15.064;2022-08-01T05:30:21;3.90;;;1.63;;
4794;SDS011;2411;47.060;15.064;2022-08-01T05:32:48;1.90;;;1.80;;
4794;SDS011;2411;47.060;15.064;2022-08-01T05:35:15;2.10;;;2.00;;
4794;SDS011;2411;47.060;15.064;2022-08-01T05:37:42;3.40;;;2.50;;
4794;SDS011;2411;47.060;15.064;2022-08-01T05:40:09;4.10;;;1.77;;
4794;SDS011;2411;47.060;15.064;2022-08-01T05:42:36;2.93;;;2.00;;
4794;SDS011;2411;47.060;15.064;2022-08-01T05:45:03;1.90;;;1.80;;
4794;SDS011;2411;47.060;15.064;2022-08-01T05:47:30;2.23;;;2.13;;
4794;SDS011;2411;47.060;15.064;2022-08-01T05:49:57;2.87;;;2.13;;
4794;SDS011;2411;47.060;15.064;2022-08-01T05:52:24;3.87;;;1.90;;
4794;SDS011;2411;47.060;15.064;2022-08-01T05:54:51;2.57;;;1.70;;
4794;SDS011;2411;47.060;15.064;2022-08-01T05:57:18;3.27;;;2.13;;
4794;SDS011;2411;47.060;15.064;2022-08-01T05:59:45;3.17;;;2.17;;
4794;SDS011;2411;47.060;15.064;2022-08-01T06:02:12;5.77;;;2.13;;
4794;SDS011;2411;47.060;15.064;2022-08-01T06:04:39;2.60;;;1.80;;
4794;SDS011;2411;47.060;15.064;2022-08-01T06:07:06;3.17;;;2.03;;
4794;SDS011;2411;47.060;15.064;2022-08-01T06:09:33;2.60;;;2.10;;
4794;SDS011;2411;47.060;15.064;2022-08-01T06:12:00;1.87;;;1.73;;
4794;SDS011;2411;47.060;15.064;2022-08-01T06:14:27;1.90;;;1.63;;
4794;SDS011;2411;47.060;15.064;2022-08-01T06:16:54;2.60;;;1.97;;
4794;SDS011;2411;47.060;15.064;2022-08-01T06:19:21;2.80;;;2.60;;
4794;SDS011;2411;47.060;15.064;2022-08-01T06:21:48;7.53;;;2.17;;
4794;SDS011;2411;47.060;15.064;2022-08-01T06:24:15;3.57;;;2.13;;
4794;SDS011;2411;47.060;15.064;2022-08-01T06:26:42;2.77;;;2.00;;
4794;SDS011;2411;47.060;15.064;2022-08-01T06:29:09;2.43;;;2.20;;
4794;SDS011;2411;47.060;15.064;2022-08-01T06:31:37;2.43;;;2.27;;
4794;SDS011;2411;47.060;15.064;2022-08-01T06:34:04;2.50;;;2.17;;
4794;SDS011;2411;47.060;15.064;2022-08-01T06:36:31;4.10;;;2.70;;
4794;SDS011;2411;47.060;15.064;2022-08-01T06:38:58;4.70;;;2.57;;
4794;SDS011;2411;47.060;15.064;2022-08-01T06:41:24;3.33;;;2.37;;
4794;SDS011;2411;47.060;15.064;2022-08-01T06:43:51;4.93;;;2.40;;
4794;SDS011;2411;47.060;15.064;2022-08-01T06:46:18;2.50;;;2.30;;
4794;SDS011;2411;47.060;15.064;2022-08-01T06:48:45;4.83;;;2.40;;
4794;SDS011;2411;47.060;15.064;2022-08-01T06:51:12;3.37;;;2.20;;
4794;SDS011;2411;47.060;15.064;2022-08-01T06:53:44;2.93;;;1.90;;
4794;SDS011;2411;47.060;15.064;2022-08-01T06:56:11;2.93;;;2.67;;
4794;SDS011;2411;47.060;15.064;2022-08-01T06:58:38;2.93;;;2.10;;
4794;SDS011;2411;47.060;15.064;2022-08-01T07:01:05;3.40;;;1.70;;
4794;SDS011;2411;47.060;15.064;2022-08-01T07:03:33;1.90;;;1.80;;
4794;SDS011;2411;47.060;15.064;2022-08-01T07:06:20;2.57;;;2.37;;
4794;SDS011;2411;47.060;15.064;2022-08-01T07:08:51;1.77;;;1.67;;
4794;SDS011;2411;47.060;15.064;2022-08-01T07:11:19;3.33;;;2.10;;
4794;SDS011;2411;47.060;15.064;2022-08-01T07:13:47;1.70;;;1.60;;
4794;SDS011;2411;47.060;15.064;2022-08-01T07:16:15;2.33;;;2.10;;
4794;SDS011;2411;47.060;15.064;2022-08-01T07:18:43;1.70;;;1.60;;
4794;SDS011;2411;47.060;15.064;2022-08-01T07:21:10;1.97;;;1.87;;
4794;SDS011;2411;47.060;15.064;2022-08-01T07:23:57;2.67;;;1.87;;
4794;SDS011;2411;47.060;15.064;2022-08-01T07:26:25;3.37;;;2.00;;
4794;SDS011;2411;47.060;15.064;2022-08-01T07:28:53;1.60;;;1.50;;
4794;SDS011;2411;47.060;15.064;2022-08-01T07:31:20;1.70;;;1.60;;
4794;SDS011;2411;47.060;15.064;2022-08-01T07:33:47;1.50;;;1.50;;
4794;SDS011;2411;47.060;15.064;2022-08-01T07:36:15;1.60;;;1.50;;
4794;SDS011;2411;47.060;15.064;2022-08-01T07:38:43;1.87;;;1.77;;
4794;SDS011;2411;47.060;15.064;2022-08-01T07:41:10;1.67;;;1.57;;
4794;SDS011;2411;47.060;15.064;2022-08-01T07:43:37;1.83;;;1.73;;
4794;SDS011;2411;47.060;15.064;2022-08-01T07:46:04;5.20;;;2.10;;
4794;SDS011;2411;47.060;15.064;2022-08-01T07:48:32;2.80;;;1.60;;
4794;SDS011;2411;47.060;15.064;2022-08-01T07:50:59;2.50;;;2.30;;
4794;SDS011;2411;47.060;15.064;2022-08-01T07:53:26;3.17;;;1.80;;
4794;SDS011;2411;47.060;15.064;2022-08-01T07:55:53;3.73;;;1.90;;
4794;SDS011;2411;47.060;15.064;2022-08-01T07:58:20;2.30;;;1.60;;
4794;SDS011;2411;47.060;15.064;2022-08-01T08:00:47;1.60;;;1.50;;
4794;SDS011;2411;47.060;15.064;2022-08-01T08:03:14;2.10;;;1.60;;
4794;SDS011;2411;47.060;15.064;2022-08-01T08:05:41;3.30;;;1.67;;
4794;SDS011;2411;47.060;15.064;2022-08-01T08:08:24;3.00;;;1.37;;
4794;SDS011;2411;47.060;15.064;2022-08-01T08:10:51;2.80;;;1.30;;
4794;SDS011;2411;47.060;15.064;2022-08-01T08:13:18;1.93;;;1.50;;
4794;SDS011;2411;47.060;15.064;2022-08-01T08:15:46;1.73;;;1.53;;
4794;SDS011;2411;47.060;15.064;2022-08-01T08:18:14;2.77;;;1.60;;
4794;SDS011;2411;47.060;15.064;2022-08-01T08:20:41;2.60;;;1.43;;
4794;SDS011;2411;47.060;15.064;2022-08-01T08:23:08;1.80;;;1.37;;
4794;SDS011;2411;47.060;15.064;2022-08-01T08:26:11;1.27;;;1.27;;
4794;SDS011;2411;47.060;15.064;2022-08-01T08:28:38;4.67;;;1.30;;
4794;SDS011;2411;47.060;15.064;2022-08-01T08:31:06;2.33;;;1.20;;
4794;SDS011;2411;47.060;15.064;2022-08-01T08:33:54;4.10;;;1.47;;
4794;SDS011;2411;47.060;15.064;2022-08-01T08:36:21;3.13;;;1.37;;
4794;SDS011;2411;47.060;15.064;2022-08-01T08:38:57;1.70;;;1.33;;
4794;SDS011;2411;47.060;15.064;2022-08-01T08:41:26;3.20;;;1.40;;
4794;SDS011;2411;47.060;15.064;2022-08-01T08:44:08;1.93;;;1.30;;
4794;SDS011;2411;47.060;15.064;2022-08-01T08:46:40;1.47;;;1.37;;
4794;SDS011;2411;47.060;15.064;2022-08-01T08:49:09;1.80;;;1.60;;
4794;SDS011;2411;47.060;15.064;2022-08-01T08:51:40;2.60;;;1.80;;
4794;SDS011;2411;47.060;15.064;2022-08-01T08:54:10;3.93;;;2.20;;
4794;SDS011;2411;47.060;15.064;2022-08-01T08:56:39;4.77;;;2.23;;
4794;SDS011;2411;47.060;15.064;2022-08-01T08:59:08;4.87;;;1.50;;
4794;SDS011;2411;47.060;15.064;2022-08-01T09:01:37;2.77;;;1.70;;
4794;SDS011;2411;47.060;15.064;2022-08-01T09:04:04;1.60;;;1.50;;
4794;SDS011;2411;47.060;15.064;2022-08-01T09:06:32;5.70;;;2.00;;
4794;SDS011;2411;47.060;15.064;2022-08-01T09:08:59;1.90;;;1.80;;
4794;SDS011;2411;47.060;15.064;2022-08-01T09:11:26;1.97;;;1.83;;
4794;SDS011;2411;47.060;15.064;2022-08-01T09:16:31;3.10;;;1.90;;
4794;SDS011;2411;47.060;15.064;2022-08-01T09:19:09;3.43;;;1.63;;
4794;SDS011;2411;47.060;15.064;2022-08-01T09:22:06;1.90;;;1.80;;
4794;SDS011;2411;47.060;15.064;2022-08-01T09:24:38;2.10;;;1.90;;
4794;SDS011;2411;47.060;15.064;2022-08-01T09:27:16;2.70;;;1.80;;
4794;SDS011;2411;47.060;15.064;2022-08-01T09:29:47;4.07;;;1.67;;
4794;SDS011;2411;47.060;15.064;2022-08-01T09:32:25;3.40;;;2.10;;
4794;SDS011;2411;47.060;15.064;2022-08-01T09:35:21;6.43;;;1.93;;
4794;SDS011;2411;47.060;15.064;2022-08-01T09:38:18;1.90;;;1.60;;
4794;SDS011;2411;47.060;15.064;2022-08-01T09:40:59;1.80;;;1.60;;
4794;SDS011;2411;47.060;15.064;2022-08-01T09:43:28;5.33;;;2.00;;
4794;SDS011;2411;47.060;15.064;2022-08-01T09:45:57;2.00;;;1.90;;
4794;SDS011;2411;47.060;15.064;2022-08-01T09:48:25;5.00;;;1.90;;
4794;SDS011;2411;47.060;15.064;2022-08-01T09:50:55;2.20;;;2.10;;
4794;SDS011;2411;47.060;15.064;2022-08-01T09:53:42;3.57;;;1.87;;
4794;SDS011;2411;47.060;15.064;2022-08-01T09:56:18;3.83;;;2.03;;
4794;SDS011;2411;47.060;15.064;2022-08-01T09:58:50;3.80;;;1.50;;
4794;SDS011;2411;47.060;15.064;2022-08-01T10:01:28;3.87;;;1.77;;
4794;SDS011;2411;47.060;15.064;2022-08-01T10:04:19;2.20;;;1.77;;
4794;SDS011;2411;47.060;15.064;2022-08-01T10:06:47;3.33;;;1.73;;
4794;SDS011;2411;47.060;15.064;2022-08-01T10:09:32;2.10;;;1.60;;
4794;SDS011;2411;47.060;15.064;2022-08-01T10:12:06;4.10;;;1.60;;
4794;SDS011;2411;47.060;15.064;2022-08-01T10:14:41;1.90;;;1.80;;
4794;SDS011;2411;47.060;15.064;2022-08-01T10:17:12;4.27;;;2.17;;
4794;SDS011;2411;47.060;15.064;2022-08-01T10:19:44;3.87;;;1.50;;
4794;SDS011;2411;47.060;15.064;2022-08-01T10:22:13;4.90;;;1.87;;
4794;SDS011;2411;47.060;15.064;2022-08-01T10:24:46;3.53;;;1.60;;
4794;SDS011;2411;47.060;15.064;2022-08-01T10:27:14;5.20;;;1.93;;
4794;SDS011;2411;47.060;15.064;2022-08-01T10:30:03;2.87;;;1.87;;
4794;SDS011;2411;47.060;15.064;2022-08-01T10:32:46;1.73;;;1.63;;
4794;SDS011;2411;47.060;15.064;2022-08-01T10:35:16;7.73;;;1.90;;
4794;SDS011;2411;47.060;15.064;2022-08-01T10:38:04;2.93;;;1.60;;
4794;SDS011;2411;47.060;15.064;2022-08-01T10:40:39;5.13;;;1.53;;
4794;SDS011;2411;47.060;15.064;2022-08-01T10:43:11;4.53;;;1.40;;
4794;SDS011;2411;47.060;15.064;2022-08-01T10:45:47;1.50;;;1.40;;
4794;SDS011;2411;47.060;15.064;2022-08-01T10:48:20;2.20;;;1.23;;
4794;SDS011;2411;47.060;15.064;2022-08-01T10:50:58;1.20;;;1.20;;
4794;SDS011;2411;47.060;15.064;2022-08-01T10:53:28;2.47;;;1.40;;
4794;SDS011;2411;47.060;15.064;2022-08-01T10:56:08;1.60;;;1.17;;
4794;SDS011;2411;47.060;15.064;2022-08-01T10:58:41;1.20;;;1.10;;
4794;SDS011;2411;47.060;15.064;2022-08-01T11:01:20;1.77;;;1.00;;
4794;SDS011;2411;47.060;15.064;2022-08-01T11:09:03;1.00;;;1.00;;
4794;SDS011;2411;47.060;15.064;2022-08-01T11:14:32;3.77;;;1.30;;
4794;SDS011;2411;47.060;15.064;2022-08-01T11:17:30;1.00;;;1.00;;
4794;SDS011;2411;47.060;15.064;2022-08-01T11:20:10;2.40;;;1.00;;
4794;SDS011;2411;47.060;15.064;2022-08-01T11:28:25;0.90;;;0.90;;
4794;SDS011;2411;47.060;15.064;2022-08-01T11:38:43;1.10;;;1.00;;
4794;SDS011;2411;47.060;15.064;2022-08-01T11:41:13;1.40;;;0.93;;
4794;SDS011;2411;47.060;15.064;2022-08-01T11:57:17;2.57;;;0.97;;
4794;SDS011;2411;47.060;15.064;2022-08-01T11:59:49;2.17;;;0.80;;
4794;SDS011;2411;47.060;15.064;2022-08-01T12:02:32;1.00;;;0.90;;
4794;SDS011;2411;47.060;15.064;2022-08-01T12:05:09;1.00;;;0.90;;
4794;SDS011;2411;47.060;15.064;2022-08-01T12:07:41;1.27;;;0.70;;
4794;SDS011;2411;47.060;15.064;2022-08-01T12:15:19;2.63;;;0.80;;
4794;SDS011;2411;47.060;15.064;2022-08-01T12:18:01;4.30;;;0.90;;
4794;SDS011;2411;47.060;15.064;2022-08-01T12:20:31;0.80;;;0.80;;
4794;SDS011;2411;47.060;15.064;2022-08-01T12:23:01;1.20;;;0.70;;
4794;SDS011;2411;47.060;15.064;2022-08-01T12:25:38;1.03;;;0.80;;
4794;SDS011;2411;47.060;15.064;2022-08-01T12:28:07;2.63;;;1.10;;
4794;SDS011;2411;47.060;15.064;2022-08-01T12:30:35;1.20;;;1.00;;
4794;SDS011;2411;47.060;15.064;2022-08-01T12:33:05;1.23;;;0.93;;
4794;SDS011;2411;47.060;15.064;2022-08-01T12:35:34;1.40;;;1.07;;
4794;SDS011;2411;47.060;15.064;2022-08-01T12:38:23;1.80;;;1.07;;
4794;SDS011;2411;47.060;15.064;2022-08-01T12:40:51;2.80;;;0.90;;
4794;SDS011;2411;47.060;15.064;2022-08-01T12:43:20;1.20;;;1.10;;
4794;SDS011;2411;47.060;15.064;2022-08-01T12:45:53;1.53;;;0.90;;
4794;SDS011;2411;47.060;15.064;2022-08-01T12:48:23;1.00;;;0.80;;
4794;SDS011;2411;47.060;15.064;2022-08-01T12:50:51;1.67;;;1.00;;
4794;SDS011;2411;47.060;15.064;2022-08-01T12:53:20;3.80;;;0.90;;
4794;SDS011;2411;47.060;15.064;2022-08-01T12:55:49;1.87;;;0.80;;
4794;SDS011;2411;47.060;15.064;2022-08-01T12:58:24;1.00;;;0.70;;
4794;SDS011;2411;47.060;15.064;2022-08-01T13:01:04;0.93;;;0.70;;
4794;SDS011;2411;47.060;15.064;2022-08-01T13:03:33;0.97;;;0.87;;
4794;SDS011;2411;47.060;15.064;2022-08-01T13:06:00;2.10;;;0.90;;
4794;SDS011;2411;47.060;15.064;2022-08-01T13:08:31;0.90;;;0.80;;
4794;SDS011;2411;47.060;15.064;2022-08-01T13:11:03;1.63;;;0.80;;
4794;SDS011;2411;47.060;15.064;2022-08-01T13:13:52;1.47;;;0.90;;
4794;SDS011;2411;47.060;15.064;2022-08-01T13:16:21;0.83;;;0.70;;
4794;SDS011;2411;47.060;15.064;2022-08-01T13:19:03;2.03;;;0.90;;
4794;SDS011;2411;47.060;15.064;2022-08-01T13:21:32;2.97;;;0.90;;
4794;SDS011;2411;47.060;15.064;2022-08-01T13:24:28;1.03;;;0.90;;
4794;SDS011;2411;47.060;15.064;2022-08-01T13:26:56;1.00;;;0.90;;
4794;SDS011;2411;47.060;15.064;2022-08-01T13:29:34;1.13;;;0.93;;
4794;SDS011;2411;47.060;15.064;2022-08-01T13:35:05;1.40;;;0.83;;
4794;SDS011;2411;47.060;15.064;2022-08-01T13:37:35;0.73;;;0.73;;
4794;SDS011;2411;47.060;15.064;2022-08-01T13:40:04;1.10;;;0.90;;
4794;SDS011;2411;47.060;15.064;2022-08-01T13:42:33;0.90;;;0.90;;
4794;SDS011;2411;47.060;15.064;2022-08-01T13:45:00;2.10;;;0.87;;
4794;SDS011;2411;47.060;15.064;2022-08-01T13:47:29;2.83;;;1.03;;
4794;SDS011;2411;47.060;15.064;2022-08-01T13:49:58;0.90;;;0.70;;
4794;SDS011;2411;47.060;15.064;2022-08-01T13:52:29;2.63;;;0.93;;
4794;SDS011;2411;47.060;15.064;2022-08-01T13:54:57;1.37;;;0.90;;
4794;SDS011;2411;47.060;15.064;2022-08-01T13:57:24;1.00;;;1.00;;
4794;SDS011;2411;47.060;15.064;2022-08-01T14:00:03;0.93;;;0.80;;
4794;SDS011;2411;47.060;15.064;2022-08-01T14:02:31;1.33;;;0.80;;
4794;SDS011;2411;47.060;15.064;2022-08-01T14:04:58;1.80;;;0.80;;
4794;SDS011;2411;47.060;15.064;2022-08-01T14:07:25;0.73;;;0.73;;
4794;SDS011;2411;47.060;15.064;2022-08-01T14:09:53;1.23;;;0.80;;
4794;SDS011;2411;47.060;15.064;2022-08-01T14:12:40;2.00;;;0.90;;
4794;SDS011;2411;47.060;15.064;2022-08-01T14:15:10;1.77;;;0.90;;
4794;SDS011;2411;47.060;15.064;2022-08-01T14:17:38;2.70;;;1.10;;
4794;SDS011;2411;47.060;15.064;2022-08-01T14:20:13;0.87;;;0.87;;
4794;SDS011;2411;47.060;15.064;2022-08-01T14:22:40;2.10;;;0.80;;
4794;SDS011;2411;47.060;15.064;2022-08-01T14:25:07;5.90;;;1.10;;
4794;SDS011;2411;47.060;15.064;2022-08-01T14:27:35;0.90;;;0.90;;
4794;SDS011;2411;47.060;15.064;2022-08-01T14:30:03;0.80;;;0.80;;
4794;SDS011;2411;47.060;15.064;2022-08-01T14:32:30;0.90;;;0.90;;
4794;SDS011;2411;47.060;15.064;2022-08-01T14:35:03;1.30;;;1.00;;
4794;SDS011;2411;47.060;15.064;2022-08-01T14:37:32;1.37;;;1.03;;
4794;SDS011;2411;47.060;15.064;2022-08-01T14:40:04;1.60;;;0.70;;
4794;SDS011;2411;47.060;15.064;2022-08-01T14:42:36;0.97;;;0.83;;
4794;SDS011;2411;47.060;15.064;2022-08-01T14:45:04;1.20;;;0.90;;
4794;SDS011;2411;47.060;15.064;2022-08-01T14:47:35;1.13;;;0.80;;
4794;SDS011;2411;47.060;15.064;2022-08-01T14:50:04;1.00;;;0.90;;
4794;SDS011;2411;47.060;15.064;2022-08-01T14:52:33;1.47;;;1.00;;
4794;SDS011;2411;47.060;15.064;2022-08-01T14:55:01;0.70;;;0.70;;
4794;SDS011;2411;47.060;15.064;2022-08-01T14:57:29;0.97;;;0.77;;
4794;SDS011;2411;47.060;15.064;2022-08-01T14:59:56;0.87;;;0.80;;
4794;SDS011;2411;47.060;15.064;2022-08-01T15:02:23;2.10;;;0.80;;
4794;SDS011;2411;47.060;15.064;2022-08-01T15:04:50;0.90;;;0.70;;
4794;SDS011;2411;47.060;15.064;2022-08-01T15:07:17;0.90;;;0.70;;
4794;SDS011;2411;47.060;15.064;2022-08-01T15:09:44;2.83;;;0.87;;
4794;SDS011;2411;47.060;15.064;2022-08-01T15:12:11;1.77;;;0.80;;
4794;SDS011;2411;47.060;15.064;2022-08-01T15:14:38;3.17;;;0.70;;
4794;SDS011;2411;47.060;15.064;2022-08-01T15:17:16;4.60;;;0.90;;
4794;SDS011;2411;47.060;15.064;2022-08-01T15:19:49;0.93;;;0.90;;
4794;SDS011;2411;47.060;15.064;2022-08-01T15:22:18;1.70;;;0.90;;
4794;SDS011;2411;47.060;15.064;2022-08-01T15:24:45;3.00;;;1.00;;
4794;SDS011;2411;47.060;15.064;2022-08-01T15:27:13;1.23;;;0.83;;
4794;SDS011;2411;47.060;15.064;2022-08-01T15:29:40;0.80;;;0.80;;
4794;SDS011;2411;47.060;15.064;2022-08-01T15:32:08;1.00;;;0.77;;
4794;SDS011;2411;47.060;15.064;2022-08-01T15:34:35;1.10;;;1.00;;
4794;SDS011;2411;47.060;15.064;2022-08-01T15:37:03;2.77;;;1.03;;
4794;SDS011;2411;47.060;15.064;2022-08-01T15:39:31;0.97;;;0.90;;
4794;SDS011;2411;47.060;15.064;2022-08-01T15:42:06;4.10;;;1.17;;
4794;SDS011;2411;47.060;15.064;2022-08-01T15:44:35;1.67;;;0.90;;
4794;SDS011;2411;47.060;15.064;2022-08-01T15:47:02;2.20;;;0.90;;
4794;SDS011;2411;47.060;15.064;2022-08-01T15:49:30;1.33;;;0.90;;
4794;SDS011;2411;47.060;15.064;2022-08-01T15:51:57;1.00;;;1.00;;
4794;SDS011;2411;47.060;15.064;2022-08-01T15:54:24;0.80;;;0.80;;
4794;SDS011;2411;47.060;15.064;2022-08-01T15:56:52;1.00;;;0.97;;
4794;SDS011;2411;47.060;15.064;2022-08-01T15:59:18;1.47;;;0.80;;
4794;SDS011;2411;47.060;15.064;2022-08-01T16:01:48;0.80;;;0.80;;
4794;SDS011;2411;47.060;15.064;2022-08-01T16:04:16;0.70;;;0.70;;
4794;SDS011;2411;47.060;15.064;2022-08-01T16:06:44;2.77;;;1.00;;
4794;SDS011;2411;47.060;15.064;2022-08-01T16:09:12;1.50;;;0.93;;
4794;SDS011;2411;47.060;15.064;2022-08-01T16:11:44;2.30;;;0.80;;
4794;SDS011;2411;47.060;15.064;2022-08-01T16:14:16;0.80;;;0.80;;
4794;SDS011;2411;47.060;15.064;2022-08-01T16:16:43;1.47;;;1.00;;